createdAt,value
2023-02-15T00:01:13.955Z,98656.44
2023-02-15T00:06:15.742Z,98646.34
2023-02-15T00:11:39.136Z,98639.75
2023-02-15T00:16:43.091Z,98643.13
2023-02-15T00:21:45.309Z,98633.66
2023-02-15T00:26:48.133Z,98632.97
2023-02-15T00:31:50.069Z,98620.63
2023-02-15T00:36:52.700Z,98622.09
2023-02-15T00:41:54.408Z,98621.72
2023-02-15T00:46:56.066Z,98625.09
2023-02-15T00:51:57.924Z,98631.81
2023-02-15T00:56:59.862Z,98624.75
2023-02-15T01:02:01.617Z,98616.84
2023-02-15T01:07:05.006Z,98617.41
2023-02-15T01:12:09.666Z,98611.88
2023-02-15T01:17:11.274Z,98601.66
2023-02-15T01:22:12.996Z,98605.03
2023-02-15T01:27:14.725Z,98587.00
2023-02-15T01:32:16.399Z,98590.88
2023-02-15T01:37:18.909Z,98580.78
2023-02-15T01:42:25.148Z,98588.84
2023-02-15T01:47:43.936Z,98571.72
2023-02-15T01:52:54.079Z,98574.09
2023-02-15T01:57:55.966Z,98571.63
2023-02-15T02:02:58.078Z,98573.13
2023-02-15T02:08:03.037Z,98559.31
2023-02-15T02:13:07.843Z,98555.97
2023-02-15T02:18:32.706Z,98552.44
2023-02-15T02:24:05.413Z,98543.66
2023-02-15T02:29:07.508Z,98542.25
2023-02-15T02:34:30.851Z,98550.31
2023-02-15T02:39:48.835Z,98556.84
2023-02-15T02:44:58.178Z,98548.75
2023-02-15T02:50:22.235Z,98536.47
2023-02-15T02:55:39.030Z,98538.34
2023-02-15T03:01:09.047Z,98537.34
2023-02-15T03:06:18.887Z,98540.59
2023-02-15T03:11:20.824Z,98538.06
2023-02-15T03:16:29.615Z,98542.31
2023-02-15T03:21:36.157Z,98538.78
2023-02-15T03:26:46.448Z,98539.84
2023-02-15T03:31:54.775Z,98545.59
2023-02-15T03:37:04.301Z,98541.56
2023-02-15T03:42:17.654Z,98534.16
2023-02-15T03:47:25.031Z,98540.31
2023-02-15T03:52:30.590Z,98538.78
2023-02-15T03:57:51.022Z,98537.47
2023-02-15T04:03:00.086Z,98540.44
2023-02-15T04:08:02.742Z,98534.69
2023-02-15T04:13:04.403Z,98535.19
2023-02-15T04:18:06.601Z,98532.50
2023-02-15T04:23:27.249Z,98534.00
2023-02-15T04:28:28.983Z,98531.09
2023-02-15T04:33:30.803Z,98534.13
2023-02-15T04:38:32.499Z,98531.91
2023-02-15T04:43:34.153Z,98528.25
2023-02-15T04:48:36.053Z,98530.28
2023-02-15T04:53:37.860Z,98532.38
2023-02-15T04:58:42.003Z,98532.00
2023-02-15T05:03:43.651Z,98528.31
2023-02-15T05:08:45.423Z,98536.72
2023-02-15T05:13:47.743Z,98528.41
2023-02-15T05:18:49.470Z,98538.06
2023-02-15T05:23:51.255Z,98535.41
2023-02-15T05:28:52.909Z,98526.16
2023-02-15T05:33:54.704Z,98519.22
2023-02-15T05:38:56.901Z,98519.00
2023-02-15T05:43:58.625Z,98523.22
2023-02-15T05:49:00.350Z,98523.22
2023-02-15T05:54:02.022Z,98524.06
2023-02-15T05:59:03.753Z,98535.31
2023-02-15T06:04:05.512Z,98539.38
2023-02-15T06:09:07.310Z,98534.00
2023-02-15T06:14:09.060Z,98546.44
2023-02-15T06:19:10.691Z,98548.50
2023-02-15T06:24:12.622Z,98551.47
2023-02-15T06:29:14.480Z,98555.31
2023-02-15T06:34:16.868Z,98558.25
2023-02-15T06:39:18.595Z,98570.41
2023-02-15T06:44:20.293Z,98562.97
2023-02-15T06:49:21.944Z,98571.72
2023-02-15T06:54:23.609Z,98556.41
2023-02-15T06:59:25.334Z,98565.31
2023-02-15T07:04:29.597Z,98557.91
2023-02-15T07:09:31.413Z,98564.66
2023-02-15T07:14:33.140Z,98553.38
2023-02-15T07:19:34.985Z,98551.47
2023-02-15T07:24:37.025Z,98549.13
2023-02-15T07:29:38.833Z,98552.84
2023-02-15T07:34:41.462Z,98548.63
2023-02-15T07:39:43.131Z,98544.69
2023-02-15T07:44:44.777Z,98547.75
2023-02-15T07:49:46.532Z,98539.19
2023-02-15T07:54:48.259Z,98540.84
2023-02-15T07:59:50.109Z,98543.03
2023-02-15T08:04:51.891Z,98542.66
2023-02-15T08:09:54.715Z,98545.81
2023-02-15T08:14:56.434Z,98556.94
2023-02-15T08:19:58.309Z,98546.66
2023-02-15T08:25:00.313Z,98555.25
2023-02-15T08:30:02.122Z,98555.78
2023-02-15T08:35:03.976Z,98556.13
2023-02-15T08:40:06.275Z,98551.53
2023-02-15T08:45:08.524Z,98547.31
2023-02-15T08:50:10.371Z,98537.31
2023-02-15T08:55:12.102Z,98534.44
2023-02-15T09:00:14.305Z,98535.81
2023-02-15T09:05:16.029Z,98538.16
2023-02-15T09:10:17.989Z,98538.88
2023-02-15T09:15:19.792Z,98542.53
2023-02-15T09:20:22.751Z,98535.91
2023-02-15T09:25:24.302Z,98535.69
2023-02-15T09:30:26.182Z,98534.97
2023-02-15T09:35:27.924Z,98524.53
2023-02-15T09:40:39.109Z,98534.66
2023-02-15T09:45:59.873Z,98530.50
2023-02-15T09:51:17.906Z,98526.38
2023-02-15T09:56:38.553Z,98524.53
2023-02-15T10:01:53.528Z,98520.06
2023-02-15T10:07:09.290Z,98533.97
2023-02-15T10:12:25.399Z,98535.31
2023-02-15T10:17:58.085Z,98528.69
2023-02-15T10:23:09.834Z,98528.69
2023-02-15T10:28:19.660Z,98536.25
2023-02-15T10:33:40.148Z,98529.81
2023-02-15T10:38:49.078Z,98527.38
2023-02-15T10:44:06.401Z,98531.34
2023-02-15T10:49:27.372Z,98519.44
2023-02-15T10:54:46.938Z,98512.06
2023-02-15T11:00:16.159Z,98502.84
2023-02-15T11:05:40.644Z,98493.91
2023-02-15T11:10:49.709Z,98481.53
2023-02-15T11:15:58.525Z,98467.91
2023-02-15T11:21:18.992Z,98465.88
2023-02-15T11:26:26.428Z,98450.38
2023-02-15T11:31:48.330Z,98440.75
2023-02-15T11:36:53.189Z,98442.19
2023-02-15T11:42:01.785Z,98438.53
2023-02-15T11:47:03.995Z,98437.97
2023-02-15T11:52:14.251Z,98425.53
2023-02-15T11:57:24.426Z,98416.34
2023-02-15T12:02:30.974Z,98419.19
2023-02-15T12:07:42.602Z,98405.94
2023-02-15T12:12:44.774Z,98404.81
2023-02-15T12:17:54.571Z,98392.66
2023-02-15T12:23:03.389Z,98384.09
2023-02-15T12:28:25.116Z,98388.09
2023-02-15T12:33:37.371Z,98387.13
2023-02-15T12:38:39.519Z,98391.97
2023-02-15T12:43:41.368Z,98393.44
2023-02-15T12:48:43.132Z,98379.09
2023-02-15T12:53:45.276Z,98387.41
2023-02-15T12:58:47.061Z,98371.09
2023-02-15T13:03:51.649Z,98364.63
2023-02-15T13:09:12.878Z,98359.88
2023-02-15T13:14:20.944Z,98352.84
2023-02-15T13:19:41.863Z,98363.72
2023-02-15T13:24:48.342Z,98356.59
2023-02-15T13:29:59.326Z,98336.16
2023-02-15T13:35:03.527Z,98333.06
2023-02-15T13:40:12.738Z,98333.06
2023-02-15T13:45:36.708Z,98321.84
2023-02-15T13:50:51.873Z,98319.38
2023-02-15T13:56:02.967Z,98323.81
2023-02-15T14:01:20.347Z,98331.34
2023-02-15T14:07:01.018Z,98329.72
2023-02-15T14:12:27.624Z,98321.91
2023-02-15T14:17:45.391Z,98318.25
2023-02-15T14:23:01.249Z,98321.34
2023-02-15T14:28:23.984Z,98315.31
2023-02-15T14:33:38.529Z,98303.19
2023-02-15T14:38:52.825Z,98316.22
2023-02-15T14:44:16.718Z,98319.69
2023-02-15T14:49:23.533Z,98319.81
2023-02-15T14:54:25.247Z,98311.69
2023-02-15T14:59:37.068Z,98316.28
2023-02-15T15:05:01.516Z,98309.66
2023-02-15T15:10:18.533Z,98321.09
2023-02-15T15:15:32.256Z,98316.06
2023-02-15T15:20:50.210Z,98320.31
2023-02-15T15:26:15.136Z,98315.50
2023-02-15T15:31:29.169Z,98315.81
2023-02-15T15:36:51.176Z,98311.84
2023-02-15T15:42:07.670Z,98307.44
2023-02-15T15:47:39.396Z,98312.22
2023-02-15T15:52:50.035Z,98309.34
2023-02-15T15:57:56.753Z,98321.31
2023-02-15T16:02:58.739Z,98327.31
2023-02-15T16:08:00.436Z,98324.06
2023-02-15T16:13:02.995Z,98314.00
2023-02-15T16:18:05.013Z,98312.84
2023-02-15T16:23:34.504Z,98320.47
2023-02-15T16:28:36.379Z,98322.13
2023-02-15T16:33:39.765Z,98310.88
2023-02-15T16:38:44.234Z,98309.66
2023-02-15T16:43:49.163Z,98309.38
2023-02-15T16:48:54.842Z,98331.00
2023-02-15T16:54:01.343Z,98332.06
2023-02-15T16:59:03.346Z,98341.22
2023-02-15T17:04:35.602Z,98347.59
2023-02-15T17:09:58.523Z,98350.88
2023-02-15T17:15:00.616Z,98337.78
2023-02-15T17:20:02.994Z,98344.03
2023-02-15T17:25:05.479Z,98345.88
2023-02-15T17:30:21.922Z,98348.97
2023-02-15T17:35:26.054Z,98349.34
2023-02-15T17:40:31.334Z,98353.94
2023-02-15T17:45:36.678Z,98365.16
2023-02-15T17:50:38.873Z,98358.44
2023-02-15T17:55:41.197Z,98350.31
2023-02-15T18:01:05.518Z,98362.63
2023-02-15T18:06:26.077Z,98364.59
2023-02-15T18:11:37.618Z,98354.25
2023-02-15T18:16:43.248Z,98361.69
2023-02-15T18:21:46.481Z,98379.56
2023-02-15T18:26:48.485Z,98374.00
2023-02-15T18:31:54.044Z,98375.31
2023-02-15T18:36:57.230Z,98378.09
2023-02-15T18:41:59.150Z,98386.41
2023-02-15T18:47:00.873Z,98382.69
2023-02-15T18:52:02.855Z,98389.25
2023-02-15T18:57:05.426Z,98388.25
2023-02-15T19:02:13.455Z,98381.81
2023-02-15T19:07:26.820Z,98389.94
2023-02-15T19:12:28.765Z,98400.09
2023-02-15T19:17:30.442Z,98396.19
2023-02-15T19:22:34.024Z,98397.84
2023-02-15T19:27:36.149Z,98396.09
2023-02-15T19:32:37.858Z,98380.72
2023-02-15T19:37:42.461Z,98379.59
2023-02-15T19:42:44.546Z,98384.25
2023-02-15T19:47:48.238Z,98379.66
2023-02-15T19:52:50.400Z,98374.06
2023-02-15T19:57:53.267Z,98371.38
2023-02-15T20:02:56.647Z,98370.63
2023-02-15T20:07:58.641Z,98365.78
2023-02-15T20:13:02.219Z,98369.31
2023-02-15T20:18:04.289Z,98377.16
2023-02-15T20:23:07.153Z,98372.97
2023-02-15T20:28:18.948Z,98362.16
2023-02-15T20:33:24.020Z,98355.09
2023-02-15T20:38:28.885Z,98354.63
2023-02-15T20:43:30.775Z,98361.63
2023-02-15T20:48:32.500Z,98366.19
2023-02-15T20:53:34.193Z,98369.16
2023-02-15T20:58:36.681Z,98357.59
2023-02-15T21:03:38.598Z,98360.88
2023-02-15T21:08:41.276Z,98350.34
2023-02-15T21:13:43.132Z,98355.66
2023-02-15T21:18:44.880Z,98357.25
2023-02-15T21:23:47.572Z,98352.13
2023-02-15T21:28:50.315Z,98360.78
2023-02-15T21:33:52.219Z,98353.78
2023-02-15T21:38:54.272Z,98350.63
2023-02-15T21:44:15.083Z,98336.38
2023-02-15T21:49:19.165Z,98337.63
2023-02-15T21:54:21.461Z,98336.56
2023-02-15T21:59:25.450Z,98347.47
2023-02-15T22:04:30.089Z,98345.78
2023-02-15T22:09:31.851Z,98337.31
2023-02-15T22:14:41.441Z,98337.97
2023-02-15T22:19:47.483Z,98335.63
2023-02-15T22:24:49.416Z,98333.03
2023-02-15T22:29:52.099Z,98317.56
2023-02-15T22:34:54.315Z,98314.69
2023-02-15T22:39:56.151Z,98321.31
2023-02-15T22:44:58.426Z,98327.28
2023-02-15T22:50:00.386Z,98318.69
2023-02-15T22:55:02.074Z,98323.00
2023-02-15T23:00:06.237Z,98322.63
2023-02-15T23:05:17.774Z,98326.06
2023-02-15T23:10:23.241Z,98327.28
2023-02-15T23:15:24.935Z,98328.09
2023-02-15T23:20:26.715Z,98331.34
2023-02-15T23:25:28.655Z,98326.31
2023-02-15T23:30:30.828Z,98322.03
2023-02-15T23:35:32.637Z,98325.66
2023-02-15T23:40:53.040Z,98320.25
2023-02-15T23:45:54.724Z,98310.97
2023-02-15T23:50:57.087Z,98316.06
2023-02-15T23:56:02.501Z,98313.44
